Time;durP1;ratioP1;P1;durP2;ratioP2;P2;SDS_P1;SDS_P2;PMS_P1;PMS_P2;Temp;Humidity;BMP_temperature;BMP_pressure;BME280_temperature;BME280_humidity;BME280_pressure;Samples;Min_cycle;Max_cycle;Signal;HPM_P1;HPM_P2
2023/07/14 00:02:25;;;;;;;14.15;6.63;;;;;;;;;;10502962;28;20020;-74
2023/07/14 00:07:26;;;;;;;17.58;6.68;;;;;;;;;;10503318;28;20013;-74
2023/07/14 00:12:26;;;;;;;15.45;6.50;;;;;;;;;;10503612;28;20028;-74
2023/07/14 00:17:26;;;;;;;11.73;6.63;;;;;;;;;;10502555;28;20032;-74
2023/07/14 00:22:26;;;;;;;9.95;5.75;;;;;;;;;;10502891;28;20028;-73
2023/07/14 00:27:27;;;;;;;20.40;6.80;;;;;;;;;;10502734;28;20172;-73
2023/07/14 00:32:27;;;;;;;12.40;5.95;;;;;;;;;;10502616;28;20318;-74
2023/07/14 00:37:28;;;;;;;10.98;5.78;;;;;;;;;;10502671;28;20047;-74
2023/07/14 00:42:28;;;;;;;12.95;7.10;;;;;;;;;;10511563;28;20028;-74
2023/07/14 00:47:29;;;;;;;20.80;6.43;;;;;;;;;;10501010;28;20323;-74
2023/07/14 00:52:34;;;;;;;12.52;6.38;;;;;;;;;;10501753;28;20115;-74
2023/07/14 00:57:34;;;;;;;12.95;6.50;;;;;;;;;;10501897;28;20138;-74
2023/07/14 01:02:35;;;;;;;18.03;6.53;;;;;;;;;;10501300;28;20291;-74
2023/07/14 01:07:41;;;;;;;15.02;7.30;;;;;;;;;;10501103;28;20303;-73
2023/07/14 01:12:43;;;;;;;16.23;7.32;;;;;;;;;;10501148;28;20340;-73
2023/07/14 01:17:43;;;;;;;20.10;8.10;;;;;;;;;;10501060;28;20241;-74
2023/07/14 01:22:56;;;;;;;14.55;7.22;;;;;;;;;;10500758;28;20031;-73
2023/07/14 01:27:56;;;;;;;13.40;8.00;;;;;;;;;;10499520;28;20043;-74
2023/07/14 01:32:56;;;;;;;15.88;8.25;;;;;;;;;;10500541;28;20046;-74
2023/07/14 01:37:57;;;;;;;19.20;9.07;;;;;;;;;;10499418;28;20292;-74
2023/07/14 01:43:02;;;;;;;13.63;8.25;;;;;;;;;;10500319;28;20020;-74
2023/07/14 01:48:03;;;;;;;17.33;9.05;;;;;;;;;;10498988;28;20017;-73
2023/07/14 01:53:06;;;;;;;18.15;8.63;;;;;;;;;;10500192;28;20451;-74
2023/07/14 01:58:10;;;;;;;21.15;9.45;;;;;;;;;;10499963;28;20257;-74
2023/07/14 02:03:12;;;;;;;12.02;8.18;;;;;;;;;;10500072;28;20307;-74
2023/07/14 02:08:13;;;;;;;20.02;7.82;;;;;;;;;;10499487;28;20024;-74
2023/07/14 02:13:14;;;;;;;16.98;7.78;;;;;;;;;;10511167;28;20047;-73
2023/07/14 02:18:18;;;;;;;16.45;7.47;;;;;;;;;;10498823;28;20035;-73
2023/07/14 02:23:20;;;;;;;18.45;9.88;;;;;;;;;;10498104;28;20062;-73
2023/07/14 02:28:20;;;;;;;18.52;8.30;;;;;;;;;;10499553;28;20024;-73
2023/07/14 02:33:24;;;;;;;17.73;8.82;;;;;;;;;;10499407;28;20246;-73
2023/07/14 02:38:24;;;;;;;13.50;8.27;;;;;;;;;;10499433;28;20031;-75
2023/07/14 02:43:24;;;;;;;20.30;9.02;;;;;;;;;;10503187;28;20012;-75
2023/07/14 02:48:38;;;;;;;15.23;8.48;;;;;;;;;;10506742;28;20310;-73
2023/07/14 02:53:38;;;;;;;21.55;8.98;;;;;;;;;;10506555;28;20050;-74
2023/07/14 02:58:38;;;;;;;19.67;9.00;;;;;;;;;;10506091;28;20214;-75
2023/07/14 03:03:39;;;;;;;17.88;8.13;;;;;;;;;;10506201;28;20192;-75
2023/07/14 03:08:39;;;;;;;14.95;8.18;;;;;;;;;;10506286;28;20131;-74
2023/07/14 03:13:39;;;;;;;18.60;9.32;;;;;;;;;;10504262;28;20206;-74
2023/07/14 03:18:40;;;;;;;14.53;8.67;;;;;;;;;;10505546;28;20069;-74
2023/07/14 03:23:40;;;;;;;19.40;8.30;;;;;;;;;;10505871;28;20299;-75
2023/07/14 03:28:40;;;;;;;15.18;7.72;;;;;;;;;;10504984;28;20021;-75
2023/07/14 03:33:41;;;;;;;16.65;8.15;;;;;;;;;;10505174;28;20020;-73
2023/07/14 03:38:42;;;;;;;15.93;8.27;;;;;;;;;;10505072;28;20020;-73
2023/07/14 03:43:42;;;;;;;15.43;8.35;;;;;;;;;;10504660;28;20020;-75
2023/07/14 03:48:43;;;;;;;20.45;9.00;;;;;;;;;;10504367;28;20099;-75
2023/07/14 03:53:44;;;;;;;18.80;8.50;;;;;;;;;;10504435;28;20064;-75
2023/07/14 03:58:44;;;;;;;16.15;8.07;;;;;;;;;;10503849;28;20420;-74
2023/07/14 04:03:46;;;;;;;16.67;8.38;;;;;;;;;;10502397;28;20221;-74
2023/07/14 04:08:49;;;;;;;16.00;9.13;;;;;;;;;;10503609;28;20017;-74
2023/07/14 04:13:50;;;;;;;26.67;9.63;;;;;;;;;;10503175;28;20168;-74
2023/07/14 04:18:50;;;;;;;21.60;10.27;;;;;;;;;;10503274;28;20021;-74
2023/07/14 04:23:51;;;;;;;17.93;10.30;;;;;;;;;;10503017;28;20261;-74
2023/07/14 04:28:51;;;;;;;19.02;9.57;;;;;;;;;;10501359;28;20333;-75
2023/07/14 04:33:52;;;;;;;21.30;9.10;;;;;;;;;;10501269;28;20023;-73
2023/07/14 04:39:03;;;;;;;21.73;9.85;;;;;;;;;;10502173;28;20306;-75
2023/07/14 04:44:08;;;;;;;20.50;8.90;;;;;;;;;;10501922;28;20009;-75
2023/07/14 04:49:09;;;;;;;24.20;9.32;;;;;;;;;;10501498;28;20024;-76
2023/07/14 04:54:09;;;;;;;17.50;8.68;;;;;;;;;;10501262;28;20040;-75
2023/07/14 04:59:10;;;;;;;14.43;8.20;;;;;;;;;;10501170;28;20130;-75
2023/07/14 05:04:11;;;;;;;18.17;9.02;;;;;;;;;;10500804;28;20016;-74
2023/07/14 05:09:11;;;;;;;23.27;8.35;;;;;;;;;;10501003;28;20053;-73
2023/07/14 05:14:12;;;;;;;14.40;8.57;;;;;;;;;;10500513;28;20325;-75
2023/07/14 05:19:12;;;;;;;13.00;8.15;;;;;;;;;;10500841;28;20254;-74
2023/07/14 05:24:12;;;;;;;16.15;7.47;;;;;;;;;;10499222;28;20012;-74
2023/07/14 05:29:13;;;;;;;17.58;7.60;;;;;;;;;;10500193;28;20039;-74
2023/07/14 05:34:13;;;;;;;18.75;7.03;;;;;;;;;;10500015;28;20019;-73
2023/07/14 05:39:14;;;;;;;13.45;6.50;;;;;;;;;;10500081;28;20188;-74
2023/07/14 05:44:14;;;;;;;16.30;6.63;;;;;;;;;;10499848;28;20016;-75
2023/07/14 05:49:14;;;;;;;14.20;6.75;;;;;;;;;;10498677;28;20027;-74
2023/07/14 05:54:15;;;;;;;16.10;6.75;;;;;;;;;;10498823;28;20140;-73
2023/07/14 05:59:15;;;;;;;14.63;7.80;;;;;;;;;;10498762;28;20040;-74
2023/07/14 06:04:15;;;;;;;18.70;7.27;;;;;;;;;;10499749;28;20311;-74
2023/07/14 06:09:16;;;;;;;21.67;7.93;;;;;;;;;;10499967;28;20457;-74
2023/07/14 06:14:17;;;;;;;15.05;5.65;;;;;;;;;;10498907;28;20024;-73
2023/07/14 06:19:17;;;;;;;14.40;6.70;;;;;;;;;;10506111;28;20235;-73
2023/07/14 06:24:17;;;;;;;15.68;6.53;;;;;;;;;;10507815;28;20407;-73
2023/07/14 06:29:18;;;;;;;18.50;7.03;;;;;;;;;;10507197;28;20008;-74
2023/07/14 06:34:18;;;;;;;11.30;5.80;;;;;;;;;;10507194;28;20020;-74
2023/07/14 06:39:19;;;;;;;13.80;6.28;;;;;;;;;;10507068;28;20465;-74
2023/07/14 06:44:19;;;;;;;16.85;6.38;;;;;;;;;;10505300;28;20020;-74
2023/07/14 06:49:20;;;;;;;10.48;5.80;;;;;;;;;;10506646;28;20024;-74
2023/07/14 06:54:20;;;;;;;12.65;6.97;;;;;;;;;;10506283;28;20357;-74
2023/07/14 06:59:20;;;;;;;18.40;5.93;;;;;;;;;;10506019;28;20194;-74
2023/07/14 07:04:21;;;;;;;15.55;5.78;;;;;;;;;;10504590;28;20386;-73
2023/07/14 07:09:21;;;;;;;18.63;5.40;;;;;;;;;;10505973;28;20307;-73
2023/07/14 07:14:21;;;;;;;14.83;4.70;;;;;;;;;;10506104;28;20242;-73
2023/07/14 07:19:22;;;;;;;14.43;5.37;;;;;;;;;;10503818;28;20081;-73
2023/07/14 07:24:22;;;;;;;13.30;4.87;;;;;;;;;;10505159;28;20286;-73
2023/07/14 07:29:22;;;;;;;11.15;4.55;;;;;;;;;;10504593;28;20012;-73
2023/07/14 07:34:23;;;;;;;12.40;4.60;;;;;;;;;;10504649;28;20012;-74
2023/07/14 07:39:23;;;;;;;9.27;4.27;;;;;;;;;;10503547;28;20016;-73
2023/07/14 07:44:23;;;;;;;9.65;4.40;;;;;;;;;;10504759;28;20038;-74
2023/07/14 07:49:24;;;;;;;9.07;4.22;;;;;;;;;;10504199;28;20445;-74
2023/07/14 07:54:24;;;;;;;16.57;5.27;;;;;;;;;;10503803;28;20107;-72
2023/07/14 07:59:25;;;;;;;12.75;4.32;;;;;;;;;;10502464;28;20032;-74
2023/07/14 08:04:26;;;;;;;11.80;5.28;;;;;;;;;;10503627;28;20249;-74
2023/07/14 08:09:26;;;;;;;10.75;4.53;;;;;;;;;;10503411;28;20087;-74
2023/07/14 08:14:27;;;;;;;12.00;3.92;;;;;;;;;;10502020;28;20024;-74
2023/07/14 08:19:27;;;;;;;15.43;4.40;;;;;;;;;;10501894;28;20024;-73
2023/07/14 08:24:27;;;;;;;10.05;4.22;;;;;;;;;;10502449;28;20027;-74
2023/07/14 08:29:28;;;;;;;8.77;4.32;;;;;;;;;;10502685;28;20218;-74
2023/07/14 08:34:29;;;;;;;11.13;4.40;;;;;;;;;;10502406;28;20062;-74
2023/07/14 08:39:31;;;;;;;13.73;4.20;;;;;;;;;;10501138;28;20084;-72
2023/07/14 08:44:49;;;;;;;15.18;4.38;;;;;;;;;;10502000;28;20008;-72
2023/07/14 08:49:53;;;;;;;7.13;4.03;;;;;;;;;;10502034;28;20207;-74
2023/07/14 08:55:06;;;;;;;8.57;3.87;;;;;;;;;;10500244;28;20046;-74
2023/07/14 09:00:09;;;;;;;12.20;4.80;;;;;;;;;;10499846;28;20074;-73
2023/07/14 09:05:39;;;;;;;11.77;4.18;;;;;;;;;;10515365;28;20084;-74
2023/07/14 09:10:39;;;;;;;19.63;4.90;;;;;;;;;;10482155;28;20028;-73
2023/07/14 09:15:40;;;;;;;7.35;4.38;;;;;;;;;;10499558;28;20337;-73
2023/07/14 09:20:58;;;;;;;13.05;4.15;;;;;;;;;;10500832;28;20024;-73
2023/07/14 09:26:13;;;;;;;8.93;4.10;;;;;;;;;;10499272;28;20138;-73
2023/07/14 09:31:37;;;;;;;12.80;3.80;;;;;;;;;;10500690;28;20082;-74
2023/07/14 09:36:38;;;;;;;9.93;4.70;;;;;;;;;;10500781;28;20380;-72
2023/07/14 09:41:38;;;;;;;6.82;3.58;;;;;;;;;;10500217;28;20016;-74
2023/07/14 09:46:44;;;;;;;8.52;4.10;;;;;;;;;;10500146;28;20126;-74
2023/07/14 09:52:03;;;;;;;10.35;4.50;;;;;;;;;;10500018;28;20056;-74
2023/07/14 09:57:09;;;;;;;11.52;4.40;;;;;;;;;;10498988;28;20511;-73
2023/07/14 10:02:13;;;;;;;10.55;4.22;;;;;;;;;;10499530;28;20096;-73
2023/07/14 10:07:31;;;;;;;10.75;4.65;;;;;;;;;;10500193;28;20012;-73
2023/07/14 10:12:40;;;;;;;12.05;5.18;;;;;;;;;;10499776;28;20032;-73
2023/07/14 10:17:40;;;;;;;10.27;4.00;;;;;;;;;;10499645;28;20024;-73
2023/07/14 10:22:41;;;;;;;6.38;3.65;;;;;;;;;;10497883;28;20012;-73
2023/07/14 10:27:48;;;;;;;13.82;4.45;;;;;;;;;;10497929;28;20076;-73
2023/07/14 10:32:52;;;;;;;10.82;4.55;;;;;;;;;;10499292;28;20342;-73
2023/07/14 10:37:55;;;;;;;12.98;4.60;;;;;;;;;;10499234;28;20368;-73
2023/07/14 10:43:13;;;;;;;12.52;4.85;;;;;;;;;;10499027;28;20334;-74
2023/07/14 10:48:16;;;;;;;9.98;4.72;;;;;;;;;;10499154;28;20330;-74
2023/07/14 10:53:34;;;;;;;11.48;4.53;;;;;;;;;;10498746;28;20089;-73
2023/07/14 10:58:39;;;;;;;10.70;4.43;;;;;;;;;;10498480;28;20024;-72
2023/07/14 11:03:47;;;;;;;18.17;4.30;;;;;;;;;;10500978;28;20024;-72
2023/07/14 11:08:50;;;;;;;12.32;4.88;;;;;;;;;;10504574;28;20021;-74
2023/07/14 11:13:50;;;;;;;12.02;5.32;;;;;;;;;;10505074;28;20100;-73
2023/07/14 11:19:03;;;;;;;11.60;5.38;;;;;;;;;;10505635;28;20315;-73
2023/07/14 11:24:09;;;;;;;9.70;5.90;;;;;;;;;;10504465;28;20012;-74
2023/07/14 11:29:09;;;;;;;;;;;;;;;;;;10505836;28;20024;-74
2023/07/14 11:34:16;;;;;;;18.98;7.43;;;;;;;;;;10504949;28;20102;-74
2023/07/14 11:39:31;;;;;;;14.82;6.38;;;;;;;;;;10505154;28;20055;-72
2023/07/14 11:44:31;;;;;;;12.20;6.85;;;;;;;;;;10504519;28;20299;-74
2023/07/14 11:49:34;;;;;;;15.23;6.37;;;;;;;;;;10504213;28;20233;-73
2023/07/14 11:54:41;;;;;;;14.20;5.65;;;;;;;;;;10503301;28;20335;-74
2023/07/14 12:00:00;;;;;;;15.60;5.88;;;;;;;;;;10503396;28;20020;-73
2023/07/14 12:05:17;;;;;;;11.43;5.45;;;;;;;;;;10503551;28;20020;-73
2023/07/14 12:10:39;;;;;;;9.27;5.72;;;;;;;;;;10504484;28;20153;-74
2023/07/14 12:15:40;;;;;;;17.10;7.78;;;;;;;;;;10501123;28;20042;-73
2023/07/14 12:20:40;;;;;;;24.15;6.22;;;;;;;;;;10503294;28;20020;-73
2023/07/14 12:25:42;;;;;;;10.80;7.03;;;;;;;;;;10501828;28;20050;-73
2023/07/14 12:30:49;;;;;;;18.42;6.13;;;;;;;;;;10503279;28;20027;-72
2023/07/14 12:35:50;;;;;;;12.20;6.93;;;;;;;;;;10502954;28;20035;-74
2023/07/14 12:40:51;;;;;;;19.23;7.25;;;;;;;;;;10502696;28;20223;-73
2023/07/14 12:45:52;;;;;;;13.43;6.10;;;;;;;;;;10502405;28;20052;-72
2023/07/14 12:50:53;;;;;;;11.77;5.28;;;;;;;;;;10502226;28;20027;-73
2023/07/14 12:55:54;;;;;;;13.40;6.00;;;;;;;;;;10502072;28;20360;-73
2023/07/14 13:00:54;;;;;;;14.55;6.55;;;;;;;;;;10500521;28;20386;-74
2023/07/14 13:05:55;;;;;;;15.88;6.25;;;;;;;;;;10501824;28;20020;-72
2023/07/14 13:10:58;;;;;;;14.70;6.78;;;;;;;;;;10501404;28;20020;-74
2023/07/14 13:15:59;;;;;;;16.33;6.63;;;;;;;;;;10500972;28;20027;-74
2023/07/14 13:21:00;;;;;;;15.55;6.28;;;;;;;;;;10501234;28;20082;-75
2023/07/14 13:26:04;;;;;;;17.45;7.40;;;;;;;;;;10499227;28;20020;-74
2023/07/14 13:31:05;;;;;;;16.27;6.93;;;;;;;;;;10500247;28;20013;-74
2023/07/14 13:36:07;;;;;;;10.30;6.70;;;;;;;;;;10500731;28;20317;-74
2023/07/14 13:41:09;;;;;;;18.55;7.18;;;;;;;;;;10499279;28;20028;-74
2023/07/14 13:46:15;;;;;;;14.88;7.50;;;;;;;;;;10500160;28;20023;-73
2023/07/14 13:51:20;;;;;;;19.17;7.70;;;;;;;;;;10500416;28;20024;-72
2023/07/14 13:56:23;;;;;;;16.15;7.38;;;;;;;;;;10500213;28;20089;-73
2023/07/14 14:01:24;;;;;;;15.23;7.47;;;;;;;;;;10500285;28;20048;-73
2023/07/14 14:06:25;;;;;;;15.75;7.80;;;;;;;;;;10499783;28;20037;-73
2023/07/14 14:11:25;;;;;;;20.42;7.05;;;;;;;;;;10500226;28;20082;-73
2023/07/14 14:16:26;;;;;;;17.08;7.65;;;;;;;;;;10499916;28;20139;-73
2023/07/14 14:21:26;;;;;;;24.63;8.40;;;;;;;;;;10499262;28;20032;-74
2023/07/14 14:26:26;;;;;;;22.45;7.05;;;;;;;;;;10499634;28;20019;-73
2023/07/14 14:31:26;;;;;;;19.85;8.60;;;;;;;;;;10498755;28;20027;-73
2023/07/14 14:36:27;;;;;;;16.70;7.87;;;;;;;;;;10499524;28;20035;-74
2023/07/14 14:41:28;;;;;;;21.27;8.55;;;;;;;;;;10506994;28;20302;-74
2023/07/14 14:46:28;;;;;;;17.90;8.60;;;;;;;;;;10507103;28;20190;-74
2023/07/14 14:51:28;;;;;;;16.38;8.40;;;;;;;;;;10506374;28;20031;-74
2023/07/14 14:56:31;;;;;;;22.08;11.45;;;;;;;;;;10506532;28;20318;-74
2023/07/14 15:01:33;;;;;;;17.55;8.55;;;;;;;;;;10507087;28;20024;-74
2023/07/14 15:06:34;;;;;;;21.00;8.60;;;;;;;;;;10508324;28;20084;-74
2023/07/14 15:11:34;;;;;;;20.08;7.35;;;;;;;;;;10506072;28;20291;-73
2023/07/14 15:16:36;;;;;;;13.32;7.18;;;;;;;;;;10505849;28;20024;-73
2023/07/14 15:21:36;;;;;;;14.55;8.23;;;;;;;;;;10505569;28;20036;-73
2023/07/14 15:26:42;;;;;;;15.73;7.30;;;;;;;;;;10505370;28;20215;-73
2023/07/14 15:31:44;;;;;;;17.57;8.30;;;;;;;;;;10504229;28;20440;-73
2023/07/14 15:36:45;;;;;;;14.13;7.28;;;;;;;;;;10506228;28;20025;-73
2023/07/14 15:41:45;;;;;;;14.65;7.63;;;;;;;;;;10503912;28;20230;-74
2023/07/14 15:46:45;;;;;;;15.43;7.30;;;;;;;;;;10504812;28;20052;-73
2023/07/14 15:51:47;;;;;;;13.23;7.87;;;;;;;;;;10503977;28;20040;-73
2023/07/14 15:56:47;;;;;;;12.82;7.10;;;;;;;;;;10504858;28;20101;-73
2023/07/14 16:01:47;;;;;;;16.75;7.80;;;;;;;;;;10502943;28;20024;-74
2023/07/14 16:06:49;;;;;;;13.90;7.67;;;;;;;;;;10503774;28;20199;-74
2023/07/14 16:11:49;;;;;;;17.83;7.45;;;;;;;;;;10503798;28;20024;-72
2023/07/14 16:16:49;;;;;;;19.07;7.50;;;;;;;;;;10503407;28;20051;-74
2023/07/14 16:21:50;;;;;;;11.35;6.88;;;;;;;;;;10502922;28;20249;-73
2023/07/14 16:26:52;;;;;;;15.80;7.32;;;;;;;;;;10503280;28;20024;-74
2023/07/14 16:31:53;;;;;;;15.43;7.28;;;;;;;;;;10504962;28;20020;-73
2023/07/14 16:36:53;;;;;;;15.60;8.45;;;;;;;;;;10502593;28;20051;-73
2023/07/14 16:41:54;;;;;;;12.45;6.57;;;;;;;;;;10502075;28;20099;-74
2023/07/14 16:46:56;;;;;;;11.57;7.55;;;;;;;;;;10502636;28;20241;-74
2023/07/14 16:51:56;;;;;;;12.32;6.55;;;;;;;;;;10501699;28;20350;-74
2023/07/14 16:56:58;;;;;;;18.23;6.73;;;;;;;;;;10502237;28;20040;-74
2023/07/14 17:01:58;;;;;;;11.07;6.25;;;;;;;;;;10500052;28;20032;-74
2023/07/14 17:06:58;;;;;;;9.60;5.97;;;;;;;;;;10501571;28;20028;-74
2023/07/14 17:11:59;;;;;;;10.82;5.90;;;;;;;;;;10500126;28;20361;-74
2023/07/14 17:17:03;;;;;;;12.43;6.07;;;;;;;;;;10501030;28;20092;-74
2023/07/14 17:22:03;;;;;;;14.15;5.97;;;;;;;;;;10501113;28;20096;-74
2023/07/14 17:27:04;;;;;;;12.63;6.43;;;;;;;;;;10501097;28;20017;-73
2023/07/14 17:32:05;;;;;;;7.57;4.47;;;;;;;;;;10500929;28;20031;-73
2023/07/14 17:37:06;;;;;;;9.52;5.40;;;;;;;;;;10500511;28;20086;-75
2023/07/14 17:42:12;;;;;;;12.50;5.50;;;;;;;;;;10500771;28;20226;-73
2023/07/14 17:47:12;;;;;;;11.45;5.20;;;;;;;;;;10500305;28;20036;-73
2023/07/14 17:52:15;;;;;;;10.02;5.90;;;;;;;;;;10500282;28;20063;-74
2023/07/14 17:57:16;;;;;;;11.10;5.80;;;;;;;;;;10500765;28;20255;-74
2023/07/14 18:02:25;;;;;;;13.43;6.30;;;;;;;;;;10501895;28;20318;-74
2023/07/14 18:07:26;;;;;;;12.73;5.47;;;;;;;;;;10500423;28;20042;-74
2023/07/14 18:12:28;;;;;;;11.45;5.47;;;;;;;;;;10503622;28;20032;-74
2023/07/14 18:17:29;;;;;;;10.95;5.40;;;;;;;;;;10508700;28;20036;-74
2023/07/14 18:22:29;;;;;;;10.85;5.07;;;;;;;;;;10508438;28;20024;-73
2023/07/14 18:27:31;;;;;;;10.03;5.10;;;;;;;;;;10506657;28;20226;-74
2023/07/14 18:32:31;;;;;;;12.55;5.95;;;;;;;;;;10512892;28;20016;-74
2023/07/14 18:37:31;;;;;;;10.53;6.30;;;;;;;;;;10507923;28;20210;-74
2023/07/14 18:42:31;;;;;;;11.02;5.32;;;;;;;;;;10507147;28;20348;-75
2023/07/14 18:47:32;;;;;;;10.20;5.78;;;;;;;;;;10507653;28;20024;-74
2023/07/14 18:52:35;;;;;;;11.70;5.70;;;;;;;;;;10505898;28;20040;-74
2023/07/14 18:57:37;;;;;;;15.13;5.28;;;;;;;;;;10506633;28;20047;-73
2023/07/14 19:02:37;;;;;;;12.25;5.97;;;;;;;;;;10505328;28;20024;-73
2023/07/14 19:07:38;;;;;;;7.78;5.40;;;;;;;;;;10506580;28;20291;-74
2023/07/14 19:12:39;;;;;;;9.52;5.57;;;;;;;;;;10505713;28;20020;-75
2023/07/14 19:17:40;;;;;;;10.05;6.00;;;;;;;;;;10506224;28;20307;-74
2023/07/14 19:22:41;;;;;;;9.40;5.78;;;;;;;;;;10505455;28;20024;-74
2023/07/14 19:27:42;;;;;;;12.88;5.95;;;;;;;;;;10504456;28;20302;-73
2023/07/14 19:32:46;;;;;;;9.07;6.35;;;;;;;;;;10505645;28;20394;-74
2023/07/14 19:37:47;;;;;;;14.23;6.35;;;;;;;;;;10505243;28;20028;-74
2023/07/14 19:42:48;;;;;;;13.02;6.15;;;;;;;;;;10504893;28;20029;-75
2023/07/14 19:47:48;;;;;;;9.77;5.88;;;;;;;;;;10503693;28;20088;-73
2023/07/14 19:52:49;;;;;;;7.97;5.47;;;;;;;;;;10504495;28;20247;-73
2023/07/14 19:57:51;;;;;;;10.52;5.63;;;;;;;;;;10504529;28;20020;-74
2023/07/14 20:02:51;;;;;;;11.15;6.22;;;;;;;;;;10504278;28;20039;-73
2023/07/14 20:07:52;;;;;;;9.13;6.77;;;;;;;;;;10502935;28;20024;-73
2023/07/14 20:12:52;;;;;;;16.33;6.63;;;;;;;;;;10503663;28;20020;-74
2023/07/14 20:17:52;;;;;;;11.23;5.80;;;;;;;;;;10503989;28;20051;-73
2023/07/14 20:22:53;;;;;;;11.97;6.63;;;;;;;;;;10503436;28;20278;-73
2023/07/14 20:27:53;;;;;;;10.68;6.55;;;;;;;;;;10503129;28;20218;-75
2023/07/14 20:32:53;;;;;;;10.73;6.68;;;;;;;;;;10503138;28;20026;-75
2023/07/14 20:37:54;;;;;;;14.07;6.85;;;;;;;;;;10501969;28;20246;-75
2023/07/14 20:42:54;;;;;;;12.27;6.75;;;;;;;;;;10502554;28;20522;-74
2023/07/14 20:47:54;;;;;;;12.70;6.65;;;;;;;;;;10501238;28;20065;-72
2023/07/14 20:52:58;;;;;;;13.27;6.65;;;;;;;;;;10502507;28;20082;-73
2023/07/14 20:58:00;;;;;;;11.80;6.82;;;;;;;;;;10501915;28;20032;-73
2023/07/14 21:03:00;;;;;;;15.88;7.25;;;;;;;;;;10514773;28;20029;-75
2023/07/14 21:08:03;;;;;;;11.10;7.53;;;;;;;;;;10502292;28;20452;-73
2023/07/14 21:13:04;;;;;;;13.32;7.70;;;;;;;;;;10501239;28;20322;-73
2023/07/14 21:18:09;;;;;;;12.75;6.70;;;;;;;;;;10501460;28;20207;-75
2023/07/14 21:23:26;;;;;;;15.30;6.95;;;;;;;;;;10501074;28;20036;-74
2023/07/14 21:28:27;;;;;;;10.70;6.90;;;;;;;;;;10500759;28;20202;-73
2023/07/14 21:33:30;;;;;;;12.18;7.03;;;;;;;;;;10500958;28;20452;-74
2023/07/14 21:38:31;;;;;;;19.73;7.95;;;;;;;;;;10500636;28;20226;-73
2023/07/14 21:43:35;;;;;;;17.45;8.30;;;;;;;;;;10500673;28;20103;-73
2023/07/14 21:48:36;;;;;;;16.13;8.18;;;;;;;;;;10500338;28;20219;-73
2023/07/14 21:53:36;;;;;;;13.83;8.33;;;;;;;;;;10500181;28;20068;-73
2023/07/14 21:58:37;;;;;;;18.75;7.82;;;;;;;;;;10500232;28;20222;-73
2023/07/14 22:03:37;;;;;;;11.57;7.00;;;;;;;;;;10499303;28;20225;-75
2023/07/14 22:08:38;;;;;;;17.17;6.83;;;;;;;;;;10500225;28;20401;-74
2023/07/14 22:13:38;;;;;;;14.70;7.65;;;;;;;;;;10498703;28;20570;-74
2023/07/14 22:18:39;;;;;;;12.70;7.85;;;;;;;;;;10498852;28;20044;-73
2023/07/14 22:23:39;;;;;;;11.48;7.28;;;;;;;;;;10500067;28;20025;-75
2023/07/14 22:28:40;;;;;;;13.48;7.07;;;;;;;;;;10499428;28;20210;-74
2023/07/14 22:33:40;;;;;;;14.45;7.40;;;;;;;;;;10499946;28;20024;-74
2023/07/14 22:38:41;;;;;;;12.20;7.30;;;;;;;;;;10498619;28;20180;-74
2023/07/14 22:43:41;;;;;;;12.00;7.10;;;;;;;;;;10497913;28;20051;-74
2023/07/14 22:48:42;;;;;;;14.50;7.93;;;;;;;;;;10499424;28;20084;-73
2023/07/14 22:53:42;;;;;;;15.23;8.38;;;;;;;;;;10499383;28;20341;-73
2023/07/14 22:58:46;;;;;;;11.75;7.75;;;;;;;;;;10500070;28;20383;-74
2023/07/14 23:03:47;;;;;;;13.55;8.57;;;;;;;;;;10505379;28;20020;-74
2023/07/14 23:08:49;;;;;;;16.85;7.85;;;;;;;;;;10506759;28;20039;-73
2023/07/14 23:13:49;;;;;;;15.20;7.80;;;;;;;;;;10504879;28;20029;-73
2023/07/14 23:18:50;;;;;;;18.58;7.75;;;;;;;;;;10504803;28;20250;-74
2023/07/14 23:23:51;;;;;;;11.38;7.25;;;;;;;;;;10505080;28;20017;-74
2023/07/14 23:28:53;;;;;;;15.32;7.75;;;;;;;;;;10504596;28;20016;-74
2023/07/14 23:33:54;;;;;;;11.55;7.78;;;;;;;;;;10505794;28;20105;-75
2023/07/14 23:38:54;;;;;;;13.40;8.13;;;;;;;;;;10505635;28;20086;-74
2023/07/14 23:43:55;;;;;;;12.50;7.22;;;;;;;;;;10505159;28;20020;-73
2023/07/14 23:48:56;;;;;;;10.25;7.95;;;;;;;;;;10505022;28;20074;-75
2023/07/14 23:53:57;;;;;;;12.20;8.77;;;;;;;;;;10504743;28;20072;-74
2023/07/14 23:58:57;;;;;;;14.45;7.90;;;;;;;;;;10504397;28;20063;-74
